This is the latest recevied weather packets stored in our database for station/object BMCB-13. If no packets are shown the sender has not sent any weather packets the latest 10 day(s).
| Time | Temp. | Humidity | Pressure | Rain* | Wind** | Luminosity | Snow |
|---|---|---|---|---|---|---|---|
| 1777711244 | 18.89° C | 56% | 1018.1 hPa | 0 mm | - | 450 W/m² | - |
| 1777710646 | 18.89° C | 56% | 1018 hPa | 0 mm | - | 412 W/m² | - |
| 1777707045 | 16.67° C | 59% | 1018.3 hPa | 0 mm | - | 256 W/m² | - |
| 1777690243 | 11.11° C | 57% | 1018.7 hPa | 0 mm | - | 0 W/m² | - |
| 1777689043 | 10.56° C | 61% | 1018.7 hPa | 0 mm | - | 0 W/m² | - |
| 1777683046 | 11.67° C | 52% | 1019.5 hPa | 0 mm | - | 0 W/m² | - |
| 1777681246 | 12.22° C | 49% | 1019.6 hPa | 0 mm | - | 0 W/m² | - |
| 1777678847 | 13.33° C | 47% | 1019.9 hPa | 0 mm | - | 0 W/m² | - |
| 1777674650 | 15° C | 42% | 1020.4 hPa | 0 mm | - | 0 W/m² | - |
| 1777666847 | 17.22° C | 33% | 1020.4 hPa | 0 mm | - | 0 W/m² | - |
| 1777665648 | 16.67° C | 36% | 1020.3 hPa | 0 mm | - | 0 W/m² | - |
| 1777663850 | 17.78° C | 35% | 1020 hPa | 0 mm | - | 0 W/m² | - |
| 1777662648 | 18.89° C | 32% | 1019.9 hPa | 0 mm | - | 2 W/m² | - |
| 1777659049 | 22.22° C | 22% | 1019.5 hPa | 0 mm | - | 42 W/m² | - |
| 1777657247 | 22.78° C | 21% | 1019.4 hPa | 0 mm | - | 100 W/m² | - |
| 1777652446 | 23.89° C | 22% | 1019.6 hPa | 0 mm | - | 322 W/m² | - |
| 1777651847 | 23.89° C | 22% | 1019.7 hPa | 0 mm | - | 352 W/m² | - |
| 1777649444 | 23.89° C | 22% | 1019.9 hPa | 0 mm | - | 462 W/m² | - |
| 1777648249 | 23.89° C | 22% | 1020.1 hPa | 0 mm | - | 520 W/m² | - |
| 1777646442 | 23.89° C | 23% | 1020.4 hPa | 0 mm | - | 596 W/m² | - |
| 1777644043 | 23.89° C | 22% | 1020.7 hPa | 0 mm | - | 688 W/m² | - |
| 1777636844 | 22.78° C | 24% | 1021.8 hPa | 0 mm | - | 834 W/m² | - |
| 1777635644 | 22.78° C | 24% | 1022 hPa | 0 mm | - | 840 W/m² | - |
| 1777627246 | 20° C | 27% | 1023.2 hPa | 0 mm | - | 714 W/m² | - |
| 1777626645 | 19.44° C | 28% | 1023.3 hPa | 0 mm | - | 694 W/m² | - |
* Rain latest hour (hover to see other rain measurements)
** Current wind speed in m/s (hover to see current wind gust speed)